Carcassonne Airport

LFMK · Aude, Occitanie, França

História da METAR LFMK · Carcassonne Airport

Abaixo você vê METARs dos últimos dias. Selecione um ano para navegar pelos METARs mais antigos, a partir do ano 2007.

3 de dezembro de 2022

Hora Código Clima Temp. Visibilidade Tecto Vento METAR/SPECI
23:30
M
7 °C 10 km+ 1.400 ft Var 000° 0 kt SPECI LFMK 032230Z AUTO /////KT 9999 BKN014 OVC019 07/05 Q1008
23:30
M
7 °C 10 km+ 1.400 ft Var 000° 0 kt METAR LFMK 032230Z AUTO /////KT 9999 BKN014 OVC019 07/05 Q1008
23:00
M
7 °C 10 km+ 1.200 ft Var Var 2 kt METAR LFMK 032200Z AUTO VRB02KT 9999 OVC012 07/05 Q1008
22:30
M
7 °C 10 km+ 1.000 ft Var 000° 0 kt METAR LFMK 032130Z AUTO 00000KT 9999 BKN010 OVC021 07/06 Q1008
22:00
M
7 °C 10 km+ 1.100 ft Var Var 2 kt METAR LFMK 032100Z AUTO VRB02KT 9999 BKN011 OVC019 07/06 Q1008
21:30
M
7 °C 10 km+ 1.600 ft Var 000° 0 kt METAR LFMK 032030Z AUTO 00000KT 9999 SCT008 OVC016 07/05 Q1008
21:00
M
7 °C 10 km+ 1.400 ft Var Var 2 kt METAR LFMK 032000Z AUTO VRB02KT 9999 OVC014 07/05 Q1008
20:30
I
7 °C 10 km+ 900 ft Var Var 2 kt METAR LFMK 031930Z AUTO VRB02KT 9999 OVC009 07/06 Q1008
20:00
I
7 °C 10 km+ 900 ft Var Var 2 kt METAR LFMK 031900Z AUTO VRB02KT 9999 BKN009 OVC016 07/06 Q1007
19:30
M
7 °C 10 km+ 1.600 ft Var Var 2 kt METAR LFMK 031830Z AUTO VRB02KT 9999 OVC016 07/06 Q1007
19:00
M
7 °C 10 km+ 1.500 ft 270° 270° 1 kt METAR LFMK 031800Z AUTO 27001KT 9999 FEW009 OVC015 07/06 Q1007 TEMPO BKN013
18:30
I
7 °C 10 km+ 900 ft 300° 300° 1 kt METAR LFMK 031730Z AUTO 30001KT 9999 BKN009 OVC013 07/06 Q1007 TEMPO BKN013
18:00
M
7 °C 10 km+ 1.200 ft Var 000° 0 kt METAR LFMK 031700Z AUTO 00000KT 9999 OVC012 07/06 Q1007 NOSIG
17:30
M
7 °C 10 km+ 1.100 ft Var Var 2 kt METAR LFMK 031630Z AUTO VRB02KT 9999 OVC011 07/06 Q1007 NOSIG
17:00
M
7 °C 10 km+ 1.200 ft Var Var 1 kt METAR LFMK 031600Z AUTO VRB01KT 9999 OVC012 07/06 Q1007 NOSIG
16:30
M
7 °C 10 km+ 1.300 ft 270° 270° 1 kt METAR LFMK 031530Z AUTO 27001KT 9999 OVC013 07/06 Q1007 NOSIG
16:00
M
6 °C 10 km+ 1.200 ft Var 000° 0 kt METAR LFMK 031500Z AUTO 00000KT 9999 OVC012 06/06 Q1007 NOSIG
15:30
M
6 °C 9 km 1.300 ft Var Var 2 kt METAR LFMK 031430Z AUTO VRB02KT 9000 OVC013 06/05 Q1007 NOSIG
15:00
M
6 °C 7 km 1.100 ft Var Var 2 kt METAR LFMK 031400Z AUTO VRB02KT 7000 OVC011 06/05 Q1007 NOSIG
14:30
M
6 °C 10 km+ 1.400 ft Var Var 3 kt METAR LFMK 031330Z AUTO VRB03KT 9999 OVC014 06/04 Q1007 NOSIG
14:00
M
7 °C 8 km 1.600 ft Var Var 1 kt METAR LFMK 031300Z AUTO VRB01KT 8000 -RA OVC016 07/03 Q1007 TEMPO BKN013
13:30
M
7 °C 10 km+ 2.000 ft Var Var 2 kt METAR LFMK 031230Z AUTO VRB02KT 9999 OVC020 07/01 Q1007 TEMPO BKN013
13:00
M
7 °C 10 km+ 2.700 ft Var Var 2 kt METAR LFMK 031200Z AUTO VRB02KT 9999 OVC027 07/03 Q1008 TEMPO BKN013
12:30
M
6 °C 10 km+ 2.900 ft Var Var 3 kt METAR LFMK 031130Z AUTO VRB03KT 9999 OVC029 06/03 Q1008 TEMPO BKN013
12:00
V
6 °C 10 km+ 3.400 ft Var Var 2 kt METAR LFMK 031100Z AUTO VRB02KT 9999 OVC034 06/03 Q1009 TEMPO BKN013
11:30
V
5 °C 10 km+ 3.600 ft Var Var 2 kt METAR LFMK 031030Z AUTO VRB02KT 9999 OVC036 05/03 Q1009 TEMPO BKN013
11:00
V
4 °C 10 km+ 3.600 ft Var Var 2 kt METAR LFMK 031000Z AUTO VRB02KT 9999 BKN036 OVC046 04/03 Q1009 TEMPO BKN013
10:30
V
3 °C 10 km+ 3.700 ft 280° 280° 3 kt METAR LFMK 030930Z AUTO 28003KT 9999 OVC037 03/03 Q1009 TEMPO BKN013
10:00
V
3 °C 10 km+ 3.600 ft Var Var 2 kt METAR LFMK 030900Z AUTO VRB02KT 9999 BKN036 OVC048 03/03 Q1009 TEMPO BKN013
09:30
V
2 °C 10 km+ 4.400 ft Var Var 2 kt METAR LFMK 030830Z AUTO VRB02KT 9999 SCT036 OVC044 02/02 Q1010 TEMPO 4000 BR BKN013
09:00
V
1 °C 9 km 4.000 ft Var 000° 0 kt METAR LFMK 030800Z AUTO 00000KT 9000 BKN040 OVC180 01/01 Q1010 TEMPO 4000 BR BKN010
08:30
V
0 °C 8 km - Var Var 2 kt METAR LFMK 030730Z AUTO VRB02KT 8000 NSC 00/M00 Q1010 TEMPO 4000 BR BKN010
08:00
V
0 °C 8 km - Var Var 2 kt METAR LFMK 030700Z AUTO VRB02KT 8000 NSC 00/M00 Q1010 TEMPO 4000 BR BKN010
07:30
M
0 °C 7 km - Var Var 2 kt METAR LFMK 030630Z AUTO VRB02KT 7000 NSC 00/M00 Q1010 TEMPO 4000 BR BKN010
07:00
M
1 °C 6 km - 290° 290° 1 kt METAR LFMK 030600Z AUTO 29001KT 6000 NSC 01/00 Q1010 TEMPO 4000 BR BKN010
06:30
V
1 °C 9 km - Var Var 1 kt METAR LFMK 030530Z AUTO VRB01KT 9000 NSC 01/01 Q1010 TEMPO 4000 BR BKN010
06:00
M
1 °C 6 km - 260° 260° 1 kt METAR LFMK 030500Z AUTO 26001KT 6000 NSC 01/01 Q1010 TEMPO 4000 BR BKN010
05:30
M
1 °C 6 km - Var 000° 0 kt METAR LFMK 030430Z AUTO 00000KT 6000 NSC 01/00 Q1010 TEMPO 4000 BR BKN010
05:00
V
1 °C 8 km - Var Var 2 kt METAR LFMK 030400Z AUTO VRB02KT 8000 NSC 01/01 Q1010 TEMPO 4000 BR BKN010
04:30
M
2 °C 7 km - Var 000° 0 kt METAR LFMK 030330Z AUTO 00000KT 7000 NSC 02/01 Q1010 TEMPO 4000 BR BKN010
04:00
M
2 °C 7 km - Var 000° 0 kt METAR LFMK 030300Z AUTO 00000KT 7000 NSC 02/01 Q1011 TEMPO 4000 BR BKN010
03:30
V
2 °C 8 km - Var Var 2 kt METAR LFMK 030230Z AUTO VRB02KT 8000 NSC 02/01 Q1011
03:00
M
2 °C 7 km - Var Var 3 kt METAR LFMK 030200Z AUTO VRB03KT 7000 NSC 02/01 Q1011
02:30
V
2 °C 9 km - 280° 280° 2 kt METAR LFMK 030130Z AUTO 28002KT 9000 NSC 02/01 Q1011
02:00
M
2 °C 7 km - 280° 280° 4 kt METAR LFMK 030100Z AUTO 28004KT 7000 NSC 02/02 Q1011
01:30
M
3 °C 7 km 4.200 ft 280° 280° 3 kt METAR LFMK 030030Z AUTO 28003KT 7000 BKN042 03/02 Q1011
01:00
V
3 °C 9 km 4.400 ft Var Var 1 kt METAR LFMK 030000Z AUTO VRB01KT 9000 OVC044 03/03 Q1012
00:30
V
3 °C 10 km+ 4.600 ft Var Var 2 kt METAR LFMK 022330Z AUTO VRB02KT 9999 OVC046 03/02 Q1012
00:00
V
3 °C 8 km 4.600 ft 300° 300° 4 kt METAR LFMK 022300Z AUTO 30004KT 8000 BKN046 BKN200 BKN240 03/03 Q1012

2 de dezembro de 2022

Hora Código Clima Temp. Visibilidade Tecto Vento METAR/SPECI
23:30
M
3 °C 6 km - 270° 270° 5 kt METAR LFMK 022230Z AUTO 27005KT 6000 FEW045 SCT210 03/02 Q1012
23:00
V
4 °C 10 km+ 4.500 ft Var Var 2 kt METAR LFMK 022200Z AUTO VRB02KT 9999 OVC045 04/03 Q1013
22:30
V
5 °C 10 km+ 4.500 ft Var Var 1 kt METAR LFMK 022130Z AUTO VRB01KT 9999 OVC045 05/04 Q1013
22:00
V
5 °C 10 km+ 4.300 ft Var 000° 0 kt METAR LFMK 022100Z AUTO 00000KT 9999 OVC043 05/03 Q1013
21:30
V
5 °C 10 km+ 4.300 ft 220° 220° 1 kt METAR LFMK 022030Z AUTO 22001KT 9999 OVC043 05/03 Q1013
21:00
V
6 °C 10 km+ 4.400 ft Var Var 3 kt METAR LFMK 022000Z AUTO VRB03KT 9999 OVC044 06/03 Q1014
20:30
V
5 °C 10 km+ 4.500 ft Var Var 2 kt METAR LFMK 021930Z AUTO VRB02KT 9999 OVC045 05/03 Q1014
20:00
V
5 °C 10 km+ 4.600 ft Var Var 2 kt METAR LFMK 021900Z AUTO VRB02KT 9999 OVC046 05/03 Q1014
19:30
V
5 °C 10 km+ 4.300 ft Var Var 2 kt METAR LFMK 021830Z AUTO VRB02KT 9999 OVC043 05/03 Q1014
19:00
V
6 °C 10 km+ 4.300 ft 250° 250° 3 kt METAR LFMK 021800Z AUTO 25003KT 220V290 9999 OVC043 06/03 Q1014 NOSIG
18:30
V
6 °C 10 km+ 4.300 ft 240° 240° 5 kt METAR LFMK 021730Z AUTO 24005KT 9999 OVC043 06/03 Q1015 NOSIG
18:00
V
6 °C 10 km+ 4.700 ft 240° 240° 5 kt METAR LFMK 021700Z AUTO 24005KT 9999 OVC047 06/04 Q1015 NOSIG
17:30
V
7 °C 10 km+ 4.700 ft 240° 240° 5 kt METAR LFMK 021630Z AUTO 24005KT 200V280 9999 OVC047 07/04 Q1015 NOSIG
17:00
V
7 °C 10 km+ 4.700 ft 260° 260° 6 kt METAR LFMK 021600Z AUTO 26006KT 9999 OVC047 07/04 Q1015 NOSIG
16:30
V
8 °C 10 km+ 4.900 ft 270° 270° 6 kt METAR LFMK 021530Z AUTO 27006KT 220V290 9999 BKN049 08/03 Q1014 NOSIG
16:00
V
9 °C 10 km+ 4.600 ft 270° 270° 6 kt METAR LFMK 021500Z AUTO 27006KT 230V300 9999 OVC046 09/03 Q1014 NOSIG
15:30
V
9 °C 10 km+ 4.400 ft 280° 280° 7 kt METAR LFMK 021430Z AUTO 28007KT 240V310 9999 OVC044 09/03 Q1014 NOSIG
15:00
V
8 °C 10 km+ 4.500 ft 280° 280° 5 kt METAR LFMK 021400Z AUTO 28005KT 9999 BKN045 08/03 Q1015 NOSIG
14:30
V
8 °C 10 km+ - 270° 270° 4 kt METAR LFMK 021330Z AUTO 27004KT 220V310 9999 FEW046 08/02 Q1015 NOSIG
14:00
V
9 °C 10 km+ - 290° 290° 5 kt METAR LFMK 021300Z AUTO 29005KT 230V330 CAVOK 09/04 Q1015 NOSIG
13:30
V
9 °C 10 km+ - 280° 280° 5 kt METAR LFMK 021230Z AUTO 28005KT 220V320 9999 FEW021 09/03 Q1016 NOSIG
13:00
V
8 °C 10 km+ - Var Var 2 kt METAR LFMK 021200Z AUTO VRB02KT 9999 SCT021 08/03 Q1016 NOSIG
12:30
M
8 °C 10 km+ 2.100 ft 280° 280° 3 kt METAR LFMK 021130Z AUTO 28003KT 240V340 9999 BKN021 08/03 Q1017 NOSIG
12:00
M
8 °C 10 km+ 2.000 ft 270° 270° 4 kt METAR LFMK 021100Z AUTO 27004KT 190V320 9999 OVC020 08/03 Q1017 NOSIG
11:30
M
8 °C 10 km+ 2.000 ft 230° 230° 4 kt METAR LFMK 021030Z AUTO 23004KT 170V280 9999 OVC020 08/03 Q1017 NOSIG
11:00
M
7 °C 10 km+ 2.000 ft 230° 230° 5 kt METAR LFMK 021000Z AUTO 23005KT 170V290 9999 OVC020 07/02 Q1018 NOSIG
10:30
M
7 °C 10 km+ 1.900 ft 230° 230° 5 kt METAR LFMK 020930Z AUTO 23005KT 160V270 9999 OVC019 07/03 Q1018 NOSIG
10:00
M
6 °C 10 km+ 1.900 ft 220° 220° 4 kt METAR LFMK 020900Z AUTO 22004KT 150V260 9999 OVC019 06/03 Q1018 NOSIG
09:30
M
6 °C 10 km+ 1.800 ft 220° 220° 4 kt METAR LFMK 020830Z AUTO 22004KT 160V270 9999 OVC018 06/03 Q1018 NOSIG
09:00
M
5 °C 10 km+ 1.900 ft Var Var 3 kt METAR LFMK 020800Z AUTO VRB03KT 9999 OVC019 05/04 Q1018 BECMG OVC010
08:30
M
5 °C 10 km+ 1.800 ft Var Var 3 kt METAR LFMK 020730Z AUTO VRB03KT 9999 OVC018 05/04 Q1018 BECMG OVC010
08:00
M
5 °C 10 km+ 1.900 ft Var Var 2 kt METAR LFMK 020700Z AUTO VRB02KT 9999 OVC019 05/04 Q1018 TEMPO 4000 BR BECMG OVC010
07:30
M
5 °C 10 km+ 1.800 ft Var Var 2 kt METAR LFMK 020630Z AUTO VRB02KT 9999 OVC018 05/04 Q1018 TEMPO 4000 BR BECMG OVC010
07:00
M
5 °C 10 km+ 1.600 ft Var Var 2 kt METAR LFMK 020600Z AUTO VRB02KT 9999 OVC016 05/03 Q1018 TEMPO 4000 BR OVC005
06:30
M
6 °C 10 km+ 1.500 ft Var Var 3 kt METAR LFMK 020530Z AUTO VRB03KT 9999 OVC015 06/03 Q1018 TEMPO 4000 BR OVC005
06:00
M
6 °C 10 km+ 1.400 ft 240° 240° 3 kt METAR LFMK 020500Z AUTO 24003KT 210V280 9999 OVC014 06/03 Q1018 TEMPO 4000 BR OVC005
05:30
M
6 °C 10 km+ 1.400 ft 240° 240° 4 kt METAR LFMK 020430Z AUTO 24004KT 200V280 9999 OVC014 06/03 Q1018 TEMPO 4000 BR OVC005
05:00
M
5 °C 10 km+ 1.300 ft 250° 250° 4 kt METAR LFMK 020400Z AUTO 25004KT 210V280 9999 OVC013 05/04 Q1018 TEMPO 4000 BR OVC005
04:30
M
5 °C 10 km+ 1.200 ft 250° 250° 4 kt METAR LFMK 020330Z AUTO 25004KT 220V280 9999 OVC012 05/04 Q1018 TEMPO 4000 BR OVC005
04:00
M
5 °C 10 km+ 1.100 ft 250° 250° 5 kt METAR LFMK 020300Z AUTO 25005KT 220V280 9999 OVC011 05/04 Q1019 TEMPO 4000 BR OVC005
03:30
M
6 °C 10 km+ 1.000 ft 240° 240° 5 kt METAR LFMK 020230Z AUTO 24005KT 210V290 9999 OVC010 06/04 Q1019 TEMPO 4000 BR
03:00
M
6 °C 10 km+ 1.000 ft 240° 240° 5 kt METAR LFMK 020200Z AUTO 24005KT 200V270 9999 OVC010 06/04 Q1019
02:30
M
6 °C 10 km+ 1.000 ft 250° 250° 5 kt METAR LFMK 020130Z AUTO 25005KT 220V290 9999 OVC010 06/04 Q1019
02:00
M
6 °C 10 km+ 1.000 ft 240° 240° 6 kt METAR LFMK 020100Z AUTO 24006KT 210V270 9999 OVC010 06/04 Q1019
01:30
M
6 °C 10 km+ 1.100 ft 240° 240° 4 kt METAR LFMK 020030Z AUTO 24004KT 200V280 9999 OVC011 06/04 Q1019
01:00
M
6 °C 10 km+ 1.100 ft 240° 240° 6 kt METAR LFMK 020000Z AUTO 24006KT 190V280 9999 OVC011 06/04 Q1019
00:30
M
6 °C 10 km+ 1.100 ft 250° 250° 5 kt METAR LFMK 012330Z AUTO 25005KT 220V290 9999 OVC011 06/04 Q1019
00:00
M
6 °C 10 km+ 1.100 ft 260° 260° 6 kt METAR LFMK 012300Z AUTO 26006KT 220V290 9999 OVC011 06/04 Q1019

1 de dezembro de 2022

Hora Código Clima Temp. Visibilidade Tecto Vento METAR/SPECI
23:30
M
6 °C 10 km+ 1.100 ft 230° 230° 4 kt METAR LFMK 012230Z AUTO 23004KT 170V280 9999 OVC011 06/04 Q1019
23:00
M
6 °C 10 km+ 1.000 ft Var Var 3 kt METAR LFMK 012200Z AUTO VRB03KT 9999 OVC010 06/04 Q1019
22:30
M
6 °C 10 km+ 1.000 ft 240° 240° 5 kt METAR LFMK 012130Z AUTO 24005KT 200V280 9999 OVC010 06/04 Q1020
22:00
M
6 °C 10 km+ 1.000 ft 260° 260° 7 kt METAR LFMK 012100Z AUTO 26007KT 220V290 9999 OVC010 06/04 Q1019
21:30
M
6 °C 10 km+ 1.000 ft 250° 250° 7 kt METAR LFMK 012030Z AUTO 25007KT 200V290 9999 OVC010 06/04 Q1020
21:00
I
6 °C 10 km+ 900 ft 260° 260° 6 kt METAR LFMK 012000Z AUTO 26006KT 190V290 9999 OVC009 06/04 Q1020
20:30
M
6 °C 10 km+ 1.000 ft 240° 240° 6 kt METAR LFMK 011930Z AUTO 24006KT 200V280 9999 OVC010 06/04 Q1019
20:00
M
6 °C 10 km+ 1.000 ft 250° 250° 6 kt METAR LFMK 011900Z AUTO 25006KT 210V290 9999 OVC010 06/04 Q1019
19:30
M
6 °C 10 km+ 1.100 ft 250° 250° 6 kt METAR LFMK 011830Z AUTO 25006KT 220V290 9999 BKN011 OVC060 06/04 Q1019
19:00
M
6 °C 10 km+ 1.100 ft Var Var 4 kt METAR LFMK 011800Z AUTO VRB04KT 9999 OVC011 06/04 Q1019 NOSIG
18:30
M
6 °C 10 km+ 1.100 ft 230° 230° 6 kt METAR LFMK 011730Z AUTO 23006KT 180V270 9999 OVC011 06/04 Q1019 NOSIG
18:00
M
5 °C 10 km+ 1.100 ft 220° 220° 5 kt METAR LFMK 011700Z AUTO 22005KT 170V260 9999 BKN011 OVC062 05/04 Q1019 NOSIG
17:30
V
5 °C 10 km+ 6.400 ft 250° 250° 6 kt METAR LFMK 011630Z AUTO 25006KT 190V300 9999 OVC064 05/04 Q1019 BECMG BKN010
17:00
V
6 °C 10 km+ 6.400 ft 270° 270° 10 kt METAR LFMK 011600Z AUTO 27010KT 230V310 9999 OVC064 06/04 Q1019 BECMG BKN010
16:30
V
6 °C 10 km+ 6.400 ft 270° 270° 11 kt METAR LFMK 011530Z AUTO 27011KT 9999 OVC064 06/03 Q1019 BECMG BKN010
16:00
V
6 °C 10 km+ 6.400 ft 270° 270° 10 kt METAR LFMK 011500Z AUTO 27010KT 210V300 9999 FEW011 OVC064 06/04 Q1019 BECMG BKN010
15:30
V
6 °C 10 km+ 6.400 ft 260° 260° 7 kt METAR LFMK 011430Z AUTO 26007KT 200V300 9999 FEW011 OVC064 06/04 Q1019 BECMG BKN010
15:00
M
6 °C 10 km+ 1.000 ft 250° 250° 5 kt METAR LFMK 011400Z AUTO 25005KT 190V320 9999 BKN010 OVC062 06/04 Q1019 NOSIG
14:30
I
6 °C 10 km+ 900 ft 260° 260° 7 kt METAR LFMK 011330Z AUTO 26007KT 220V300 9999 OVC009 06/04 Q1019 BECMG SCT010
14:00
I
6 °C 9 km 800 ft 260° 260° 10 kt METAR LFMK 011300Z AUTO 26010KT 230V290 9000 OVC008 06/04 Q1019 BECMG SCT010
13:30
I
5 °C 8 km 700 ft 260° 260° 9 kt METAR LFMK 011230Z AUTO 26009KT 230V300 8000 OVC007 05/04 Q1019 BECMG SCT010
13:00
I
5 °C 7 km 700 ft 260° 260° 8 kt METAR LFMK 011200Z AUTO 26008KT 220V290 7000 OVC007 05/04 Q1019 BECMG SCT010
12:30
I
5 °C 7 km 700 ft 250° 250° 9 kt METAR LFMK 011130Z AUTO 25009KT 220V290 7000 OVC007 05/04 Q1019 BECMG SCT010
12:00
I
5 °C 7 km 700 ft 250° 250° 7 kt METAR LFMK 011100Z AUTO 25007KT 190V300 7000 OVC007 05/04 Q1020 BECMG SCT010
11:30
I
5 °C 7 km 800 ft 260° 260° 8 kt METAR LFMK 011030Z AUTO 26008KT 230V310 7000 OVC008 05/04 Q1020 BECMG SCT010
11:00
I
5 °C 9 km 800 ft 260° 260° 9 kt METAR LFMK 011000Z AUTO 26009KT 220V300 9000 OVC008 05/04 Q1020 BECMG SCT010

Nós e terceiros acompanhamos seu comportamento na internet em nosso site com cookies. Se você continuar, nós assumimos que você concorda com nosso política de cookies.